createdAt,value
2023-03-07T00:01:26.592Z,94160.14
2023-03-07T00:03:53.018Z,94161.31
2023-03-07T00:06:19.326Z,94157.10
2023-03-07T00:08:45.677Z,94159.83
2023-03-07T00:11:12.057Z,94156.44
2023-03-07T00:13:38.412Z,94158.19
2023-03-07T00:16:04.891Z,94157.73
2023-03-07T00:18:31.260Z,94149.66
2023-03-07T00:20:57.645Z,94156.56
2023-03-07T00:23:23.983Z,94159.14
2023-03-07T00:25:50.369Z,94145.13
2023-03-07T00:28:16.707Z,94133.67
2023-03-07T00:30:43.111Z,94147.01
2023-03-07T00:33:09.466Z,94138.47
2023-03-07T00:35:35.854Z,94129.14
2023-03-07T00:38:02.174Z,94121.73
2023-03-07T00:40:28.571Z,94117.56
2023-03-07T00:42:54.918Z,94113.82
2023-03-07T00:45:21.329Z,94111.72
2023-03-07T00:47:47.665Z,94098.84
2023-03-07T00:50:14.058Z,94111.25
2023-03-07T00:52:40.416Z,94111.72
2023-03-07T00:55:06.823Z,94110.11
2023-03-07T00:57:33.187Z,94095.95
2023-03-07T00:59:59.600Z,94087.70
2023-03-07T01:02:25.944Z,94094.80
2023-03-07T01:04:52.324Z,94102.17
2023-03-07T01:07:18.664Z,94102.52
2023-03-07T01:09:45.058Z,94096.23
2023-03-07T01:12:11.397Z,94097.99
2023-03-07T01:14:37.787Z,94087.82
2023-03-07T01:17:05.085Z,94093.78
2023-03-07T01:19:30.509Z,94096.83
2023-03-07T01:21:56.849Z,94093.94
2023-03-07T01:24:23.241Z,94103.42
2023-03-07T01:26:49.576Z,94118.70
2023-03-07T01:29:15.980Z,94113.37
2023-03-07T01:31:42.539Z,94107.75
2023-03-07T01:34:08.819Z,94108.69
2023-03-07T01:36:35.295Z,94109.51
2023-03-07T01:39:01.581Z,94098.39
2023-03-07T01:41:27.924Z,94083.89
2023-03-07T01:43:54.318Z,94081.00
2023-03-07T01:46:20.662Z,94078.55
2023-03-07T01:48:47.043Z,94079.84
2023-03-07T01:51:13.406Z,94086.74
2023-03-07T01:53:39.800Z,94089.32
2023-03-07T01:56:06.144Z,94081.13
2023-03-07T01:58:32.528Z,94090.29
2023-03-07T02:00:58.916Z,94088.53
2023-03-07T02:03:25.259Z,94091.11
2023-03-07T02:05:51.606Z,94088.19
2023-03-07T02:08:17.985Z,94086.08
2023-03-07T02:10:44.356Z,94079.45
2023-03-07T02:13:10.750Z,94075.91
2023-03-07T02:15:37.123Z,94071.73
2023-03-07T02:18:03.483Z,94078.17
2023-03-07T02:20:29.833Z,94073.02
2023-03-07T02:22:56.230Z,94068.81
2023-03-07T02:25:22.578Z,94057.58
2023-03-07T02:27:48.957Z,94063.30
2023-03-07T02:30:15.299Z,94063.80
2023-03-07T02:32:41.788Z,94060.41
2023-03-07T02:35:08.042Z,94054.91
2023-03-07T02:37:34.429Z,94058.30
2023-03-07T02:40:00.779Z,94061.81
2023-03-07T02:42:27.156Z,94058.77
2023-03-07T02:44:53.576Z,94071.29
2023-03-07T02:47:19.962Z,94062.28
2023-03-07T02:49:46.305Z,94059.23
2023-03-07T02:52:12.694Z,94058.11
2023-03-07T02:54:39.036Z,94074.02
2023-03-07T02:57:05.422Z,94085.13
2023-03-07T02:59:31.771Z,94081.86
2023-03-07T03:01:58.226Z,94075.42
2023-03-07T03:04:24.548Z,94073.01
2023-03-07T03:06:50.881Z,94058.86
2023-03-07T03:09:17.234Z,94056.34
2023-03-07T03:11:43.619Z,94063.59
2023-03-07T03:14:09.949Z,94059.19
2023-03-07T03:16:36.354Z,94063.39
2023-03-07T03:19:02.733Z,94065.15
2023-03-07T03:21:29.123Z,94035.12
2023-03-07T03:23:55.528Z,94071.73
2023-03-07T03:26:21.916Z,94078.48
2023-03-07T03:28:48.266Z,94068.34
2023-03-07T03:31:14.689Z,94060.16
2023-03-07T03:33:41.015Z,94072.87
2023-03-07T03:36:07.443Z,94072.87
2023-03-07T03:38:33.734Z,94072.05
2023-03-07T03:41:00.128Z,94069.83
2023-03-07T03:43:26.463Z,94061.29
2023-03-07T03:45:53.836Z,94054.55
2023-03-07T03:48:19.227Z,94058.87
2023-03-07T03:50:45.617Z,94079.77
2023-03-07T03:53:11.968Z,94088.92
2023-03-07T03:55:38.352Z,94088.77
2023-03-07T03:58:04.707Z,94083.31
2023-03-07T04:00:31.118Z,94079.58
2023-03-07T04:02:57.536Z,94079.11
2023-03-07T04:05:23.848Z,94081.20
2023-03-07T04:07:52.256Z,94089.05
2023-03-07T04:10:16.655Z,94092.91
2023-03-07T04:12:43.011Z,94082.15
2023-03-07T04:15:09.411Z,94084.41
2023-03-07T04:17:35.739Z,94083.23
2023-03-07T04:20:02.115Z,94088.85
2023-03-07T04:22:28.455Z,94080.31
2023-03-07T04:24:54.840Z,94082.42
2023-03-07T04:27:21.197Z,94085.46
2023-03-07T04:29:47.581Z,94080.66
2023-03-07T04:32:13.969Z,94080.31
2023-03-07T04:34:40.306Z,94081.48
2023-03-07T04:37:06.645Z,94085.19
2023-03-07T04:39:33.035Z,94090.84
2023-03-07T04:41:59.375Z,94090.69
2023-03-07T04:44:25.798Z,94086.82
2023-03-07T04:46:52.137Z,94092.31
2023-03-07T04:49:18.522Z,94098.75
2023-03-07T04:51:44.859Z,94095.83
2023-03-07T04:54:11.240Z,94092.63
2023-03-07T04:56:37.582Z,94091.84
2023-03-07T04:59:03.976Z,94096.84
2023-03-07T05:01:30.377Z,94107.13
2023-03-07T05:03:56.825Z,94108.06
2023-03-07T05:06:23.144Z,94108.41
2023-03-07T05:08:49.493Z,94108.41
2023-03-07T05:11:15.879Z,94105.38
2023-03-07T05:13:42.228Z,94104.44
2023-03-07T05:16:08.649Z,94104.09
2023-03-07T05:18:34.937Z,94104.75
2023-03-07T05:21:01.338Z,94103.94
2023-03-07T05:23:27.683Z,94109.63
2023-03-07T05:25:54.066Z,94107.48
2023-03-07T05:28:20.413Z,94105.56
2023-03-07T05:30:46.817Z,94108.34
2023-03-07T05:33:13.137Z,94105.48
2023-03-07T05:35:39.592Z,94110.86
2023-03-07T05:38:05.859Z,94109.05
2023-03-07T05:40:32.317Z,94105.44
2023-03-07T05:42:58.662Z,94115.73
2023-03-07T05:45:25.049Z,94120.01
2023-03-07T05:47:51.387Z,94115.68
2023-03-07T05:50:17.893Z,94117.98
2023-03-07T05:52:44.264Z,94126.30
2023-03-07T05:55:10.649Z,94124.13
2023-03-07T05:57:37.000Z,94126.70
2023-03-07T06:00:03.382Z,94131.91
2023-03-07T06:02:29.756Z,94131.77
2023-03-07T06:04:56.227Z,94137.45
2023-03-07T06:07:22.559Z,94138.28
2023-03-07T06:09:48.945Z,94133.86
2023-03-07T06:12:15.288Z,94138.69
2023-03-07T06:14:41.668Z,94142.59
2023-03-07T06:17:08.010Z,94144.03
2023-03-07T06:19:34.397Z,94137.59
2023-03-07T06:22:00.754Z,94139.70
2023-03-07T06:24:27.130Z,94141.84
2023-03-07T06:26:53.480Z,94143.29
2023-03-07T06:29:20.974Z,94141.72
2023-03-07T06:31:47.369Z,94143.01
2023-03-07T06:34:13.710Z,94137.23
2023-03-07T06:36:42.518Z,94143.05
2023-03-07T06:39:08.910Z,94145.49
2023-03-07T06:41:35.296Z,94148.23
2023-03-07T06:44:01.673Z,94145.97
2023-03-07T06:46:28.023Z,94137.96
2023-03-07T06:48:54.468Z,94132.34
2023-03-07T06:51:20.818Z,94138.03
2023-03-07T06:53:47.198Z,94146.67
2023-03-07T06:56:13.581Z,94153.13
2023-03-07T06:58:39.950Z,94152.02
2023-03-07T07:01:06.333Z,94134.04
2023-03-07T07:03:34.098Z,94160.55
2023-03-07T07:05:59.057Z,94162.63
2023-03-07T07:08:25.472Z,94156.91
2023-03-07T07:10:51.825Z,94157.66
2023-03-07T07:13:18.203Z,94167.97
2023-03-07T07:15:44.582Z,94158.67
2023-03-07T07:18:11.531Z,94155.22
2023-03-07T07:20:37.290Z,94154.62
2023-03-07T07:23:03.683Z,94152.89
2023-03-07T07:25:30.029Z,94149.94
2023-03-07T07:27:56.441Z,94143.03
2023-03-07T07:30:22.762Z,94141.86
2023-03-07T07:32:49.319Z,94151.77
2023-03-07T07:35:15.595Z,94146.17
2023-03-07T07:37:42.017Z,94155.00
2023-03-07T07:40:08.328Z,94153.23
2023-03-07T07:42:34.741Z,94148.05
2023-03-07T07:45:01.070Z,94154.78
2023-03-07T07:47:27.532Z,94150.25
2023-03-07T07:49:53.877Z,94155.91
2023-03-07T07:52:20.273Z,94151.38
2023-03-07T07:54:46.662Z,94154.72
2023-03-07T07:57:13.046Z,94151.67
2023-03-07T07:59:39.395Z,94158.11
2023-03-07T08:02:11.907Z,94160.59
2023-03-07T08:04:35.722Z,94158.30
2023-03-07T08:07:02.117Z,94157.48
2023-03-07T08:09:31.044Z,94160.75
2023-03-07T08:11:57.439Z,94163.45
2023-03-07T08:14:23.779Z,94158.64
2023-03-07T08:16:50.176Z,94161.56
2023-03-07T08:19:16.524Z,94164.27
2023-03-07T08:21:42.982Z,94159.45
2023-03-07T08:24:09.337Z,94162.70
2023-03-07T08:26:35.734Z,94162.70
2023-03-07T08:29:02.085Z,94160.30
2023-03-07T08:31:28.589Z,94160.18
2023-03-07T08:33:54.846Z,94159.90
2023-03-07T08:36:22.705Z,94159.08
2023-03-07T08:38:47.592Z,94154.11
2023-03-07T08:41:13.992Z,94158.14
2023-03-07T08:43:40.335Z,94156.98
2023-03-07T08:46:06.767Z,94156.75
2023-03-07T08:48:33.075Z,94158.32
2023-03-07T08:50:59.491Z,94158.67
2023-03-07T08:53:25.834Z,94161.78
2023-03-07T08:55:52.242Z,94157.63
2023-03-07T08:58:18.606Z,94159.86
2023-03-07T09:00:44.980Z,94151.50
2023-03-07T09:03:11.335Z,94149.40
2023-03-07T09:05:37.725Z,94148.35
2023-03-07T09:08:04.075Z,94147.06
2023-03-07T09:10:30.485Z,94143.33
2023-03-07T09:12:56.841Z,94148.77
2023-03-07T09:15:23.228Z,94143.56
2023-03-07T09:17:49.581Z,94142.06
2023-03-07T09:20:15.991Z,94144.38
2023-03-07T09:22:42.340Z,94135.48
2023-03-07T09:25:08.731Z,94136.59
2023-03-07T09:27:35.098Z,94138.58
2023-03-07T09:30:01.497Z,94132.36
2023-03-07T09:32:27.852Z,94122.55
2023-03-07T09:34:54.229Z,94122.55
2023-03-07T09:37:20.582Z,94129.24
2023-03-07T09:39:46.992Z,94126.67
2023-03-07T09:42:13.353Z,94124.09
2023-03-07T09:44:39.830Z,94120.05
2023-03-07T09:47:06.159Z,94091.56
2023-03-07T09:49:32.554Z,94091.56
2023-03-07T09:51:58.951Z,94119.19
2023-03-07T09:54:25.352Z,94118.40
2023-03-07T09:56:51.784Z,94115.80
2023-03-07T09:59:23.031Z,94112.97
2023-03-07T10:01:44.528Z,94107.28
2023-03-07T10:04:10.953Z,94107.28
2023-03-07T10:06:37.272Z,94094.39
2023-03-07T10:09:03.734Z,94099.38
2023-03-07T10:11:30.119Z,94085.08
2023-03-07T10:13:56.468Z,94086.23
2023-03-07T10:16:22.883Z,94085.42
2023-03-07T10:18:49.286Z,94081.66
2023-03-07T10:21:15.636Z,94083.37
2023-03-07T10:23:42.039Z,94080.39
2023-03-07T10:26:08.398Z,94066.97
2023-03-07T10:28:34.775Z,94067.72
2023-03-07T10:31:01.130Z,94064.56
2023-03-07T10:33:27.552Z,94059.83
2023-03-07T10:35:53.908Z,94059.83
2023-03-07T10:38:20.277Z,94058.08
2023-03-07T10:40:46.600Z,94054.50
2023-03-07T10:43:13.022Z,94051.23
2023-03-07T10:45:39.384Z,94049.09
2023-03-07T10:48:05.776Z,94048.25
2023-03-07T10:50:32.109Z,94039.88
2023-03-07T10:52:58.492Z,94039.07
2023-03-07T10:55:24.819Z,94035.30
2023-03-07T10:57:51.228Z,94006.92
2023-03-07T11:00:17.592Z,94006.92
2023-03-07T11:02:43.938Z,94026.63
2023-03-07T11:05:10.311Z,94017.19
2023-03-07T11:07:36.723Z,93997.38
2023-03-07T11:10:03.082Z,94004.00
2023-03-07T11:12:29.463Z,94007.88
2023-03-07T11:14:55.821Z,93981.98
2023-03-07T11:17:22.207Z,93986.43
2023-03-07T11:19:48.528Z,93973.34
2023-03-07T11:22:14.944Z,93979.50
2023-03-07T11:24:41.296Z,93970.38
2023-03-07T11:27:07.713Z,93970.38
2023-03-07T11:29:34.037Z,93966.03
2023-03-07T11:32:00.443Z,93964.77
2023-03-07T11:34:26.787Z,93959.63
2023-03-07T11:36:53.237Z,93955.56
2023-03-07T11:39:19.572Z,93952.08
2023-03-07T11:41:45.987Z,93935.47
2023-03-07T11:44:12.318Z,93956.12
2023-03-07T11:46:38.798Z,93943.97
2023-03-07T11:49:05.035Z,93945.26
2023-03-07T11:51:33.303Z,93942.06
2023-03-07T11:53:59.673Z,93938.97
2023-03-07T11:56:26.074Z,93938.49
2023-03-07T11:58:52.428Z,93937.34
2023-03-07T12:01:18.805Z,93937.34
2023-03-07T12:03:45.144Z,93922.05
2023-03-07T12:06:11.551Z,93914.30
2023-03-07T12:08:37.903Z,93928.86
2023-03-07T12:11:04.289Z,93934.09
2023-03-07T12:13:31.956Z,93929.53
2023-03-07T12:15:57.112Z,93904.64
2023-03-07T12:18:23.380Z,93907.06
2023-03-07T12:20:49.750Z,93907.06
2023-03-07T12:23:16.116Z,93919.07
2023-03-07T12:25:42.508Z,93912.95
2023-03-07T12:28:09.948Z,93909.38
2023-03-07T12:30:35.282Z,93903.91
2023-03-07T12:33:01.778Z,93904.73
2023-03-07T12:35:28.061Z,93904.73
2023-03-07T12:37:54.385Z,93884.47
2023-03-07T12:40:20.845Z,93884.47
2023-03-07T12:42:47.202Z,93899.70
2023-03-07T12:45:13.581Z,93899.70
2023-03-07T12:47:39.948Z,93897.95
2023-03-07T12:50:06.313Z,93897.95
2023-03-07T12:52:32.694Z,93899.10
2023-03-07T12:54:59.117Z,93892.77
2023-03-07T12:57:26.525Z,93896.04
2023-03-07T12:59:51.828Z,93898.93
2023-03-07T13:02:18.190Z,93903.16
2023-03-07T13:04:44.682Z,93903.16
2023-03-07T13:07:11.022Z,93892.52
2023-03-07T13:09:37.372Z,93897.18
2023-03-07T13:12:03.714Z,93893.33
2023-03-07T13:14:30.133Z,93897.20
2023-03-07T13:16:56.533Z,93880.75
2023-03-07T13:19:23.726Z,93880.75
2023-03-07T13:21:49.316Z,93893.37
2023-03-07T13:24:15.727Z,93893.37
2023-03-07T13:26:42.074Z,93889.33
2023-03-07T13:29:08.454Z,93889.45
2023-03-07T13:31:34.790Z,93883.45
2023-03-07T13:34:01.183Z,93883.45
2023-03-07T13:36:27.528Z,93885.84
2023-03-07T13:38:53.913Z,93885.05
2023-03-07T13:41:20.253Z,93872.37
2023-03-07T13:43:46.637Z,93880.48
2023-03-07T13:46:13.021Z,93897.64
2023-03-07T13:48:39.363Z,93897.64
2023-03-07T13:51:05.707Z,93874.81
2023-03-07T13:53:32.090Z,93896.35
2023-03-07T13:55:58.433Z,93896.33
2023-03-07T13:58:24.818Z,93893.20
2023-03-07T14:00:51.172Z,93874.10
2023-03-07T14:03:17.577Z,93894.96
2023-03-07T14:05:43.891Z,93893.98
2023-03-07T14:08:10.285Z,93893.98
2023-03-07T14:10:36.627Z,93885.58
2023-03-07T14:13:03.015Z,93899.32
2023-03-07T14:15:29.391Z,93892.22
2023-03-07T14:17:55.830Z,93888.82
2023-03-07T14:20:22.195Z,93856.99
2023-03-07T14:22:48.564Z,93888.83
2023-03-07T14:25:14.910Z,93890.09
2023-03-07T14:27:41.315Z,93872.28
2023-03-07T14:30:07.689Z,93895.92
2023-03-07T14:32:34.107Z,93867.63
2023-03-07T14:35:00.392Z,93892.05
2023-03-07T14:37:26.784Z,93879.58
2023-03-07T14:39:53.155Z,93879.58
2023-03-07T14:42:19.519Z,93900.41
2023-03-07T14:44:45.852Z,93895.23
2023-03-07T14:47:12.242Z,93903.45
2023-03-07T14:49:38.572Z,93896.16
2023-03-07T14:52:04.963Z,93894.53
2023-03-07T14:54:31.303Z,93894.81
2023-03-07T14:56:57.686Z,93897.81
2023-03-07T14:59:29.053Z,93897.81
2023-03-07T15:01:50.435Z,93894.55
2023-03-07T15:04:16.787Z,93902.13
2023-03-07T15:06:43.185Z,93899.51
2023-03-07T15:09:09.506Z,93900.32
2023-03-07T15:14:18.210Z,93897.64
2023-03-07T15:16:44.517Z,93897.64
2023-03-07T15:19:10.958Z,93887.48
2023-03-07T15:21:37.304Z,93894.13
2023-03-07T15:24:03.737Z,93894.13
2023-03-07T15:26:30.038Z,93893.05
2023-03-07T15:28:56.423Z,93893.05
2023-03-07T15:31:22.850Z,93883.53
2023-03-07T15:33:49.111Z,93885.98
2023-03-07T15:36:15.483Z,93888.11
2023-03-07T15:38:41.827Z,93886.03
2023-03-07T15:41:08.205Z,93861.59
2023-03-07T15:43:34.552Z,93891.16
2023-03-07T15:46:00.962Z,93887.94
2023-03-07T15:48:27.317Z,93886.09
2023-03-07T15:50:53.695Z,93891.45
2023-03-07T15:53:20.044Z,93878.31
2023-03-07T15:55:46.439Z,93891.55
2023-03-07T15:58:12.776Z,93893.97
2023-03-07T16:00:39.157Z,93901.57
2023-03-07T16:03:05.593Z,93901.57
2023-03-07T16:05:31.888Z,93900.28
2023-03-07T16:07:58.248Z,93905.44
2023-03-07T16:10:24.625Z,93907.82
2023-03-07T16:12:50.961Z,93913.29
2023-03-07T16:15:17.351Z,93894.38
2023-03-07T16:17:43.696Z,93910.06
2023-03-07T16:20:10.117Z,93908.12
2023-03-07T16:22:36.450Z,93903.78
2023-03-07T16:25:02.849Z,93908.64
2023-03-07T16:27:29.174Z,93918.98
2023-03-07T16:29:55.564Z,93918.45
2023-03-07T16:32:21.946Z,93905.65
2023-03-07T16:34:48.274Z,93913.42
2023-03-07T16:37:14.610Z,93930.57
2023-03-07T16:39:41.019Z,93933.31
2023-03-07T16:42:07.338Z,93933.31
2023-03-07T16:44:33.751Z,93922.62
2023-03-07T16:47:00.084Z,93922.62
2023-03-07T16:49:26.460Z,93935.25
2023-03-07T16:52:05.065Z,93938.48
2023-03-07T16:54:19.229Z,93935.77
2023-03-07T16:56:45.562Z,93937.87
2023-03-07T16:59:11.990Z,93937.87
2023-03-07T17:01:38.370Z,93937.39
2023-03-07T17:04:04.715Z,93927.82
2023-03-07T17:06:39.251Z,93927.82
2023-03-07T17:08:57.444Z,93945.61
2023-03-07T17:11:23.783Z,93917.30
2023-03-07T17:13:50.171Z,93917.30
2023-03-07T17:16:16.555Z,93945.61
2023-03-07T17:18:42.896Z,93945.61
2023-03-07T17:21:09.230Z,93956.87
2023-03-07T17:23:35.613Z,93947.98
2023-03-07T17:26:02.006Z,93955.28
2023-03-07T17:28:28.376Z,93953.79
2023-03-07T17:30:54.756Z,93958.64
2023-03-07T17:33:21.106Z,93959.59
2023-03-07T17:35:47.499Z,93965.09
2023-03-07T17:38:13.867Z,93970.73
2023-03-07T17:40:40.197Z,93966.95
2023-03-07T17:43:06.605Z,93966.17
2023-03-07T17:45:32.963Z,93966.17
2023-03-07T17:47:59.359Z,93969.27
2023-03-07T17:50:25.744Z,93972.63
2023-03-07T17:52:52.112Z,93978.30
2023-03-07T17:55:18.452Z,93966.78
2023-03-07T17:57:44.841Z,93975.72
2023-03-07T18:00:11.198Z,93975.72
2023-03-07T18:02:37.605Z,93977.48
2023-03-07T18:05:03.961Z,93981.15
2023-03-07T18:07:30.334Z,93982.95
2023-03-07T18:10:07.499Z,93982.95
2023-03-07T18:12:23.111Z,93991.81
2023-03-07T18:14:49.449Z,93991.67
2023-03-07T18:17:15.870Z,93986.95
2023-03-07T18:19:42.217Z,93992.77
2023-03-07T18:22:08.603Z,93990.69
2023-03-07T18:24:34.938Z,93968.34
2023-03-07T18:27:01.346Z,93980.50
2023-03-07T18:29:27.704Z,93991.30
2023-03-07T18:31:54.083Z,93994.05
2023-03-07T18:34:20.453Z,93991.94
2023-03-07T18:36:46.823Z,93995.64
2023-03-07T18:39:13.169Z,94000.49
2023-03-07T18:41:39.561Z,93995.47
2023-03-07T18:44:05.891Z,94001.61
2023-03-07T18:46:32.422Z,94001.61
2023-03-07T18:48:58.709Z,93999.16
2023-03-07T18:51:25.131Z,93998.69
2023-03-07T18:53:51.444Z,93999.16
2023-03-07T18:56:17.836Z,93979.02
2023-03-07T18:58:44.164Z,93996.06
2023-03-07T19:01:10.585Z,93996.06
2023-03-07T19:03:36.875Z,93994.64
2023-03-07T19:06:03.264Z,93993.66
2023-03-07T19:08:29.627Z,93993.66
2023-03-07T19:10:56.012Z,93995.59
2023-03-07T19:13:22.399Z,93994.30
2023-03-07T19:15:48.802Z,94008.49
2023-03-07T19:18:15.138Z,94009.78
2023-03-07T19:20:41.525Z,94008.31
2023-03-07T19:23:07.858Z,94009.40
2023-03-07T19:25:34.227Z,94014.35
2023-03-07T19:28:02.530Z,93995.09
2023-03-07T19:30:26.941Z,94017.09
2023-03-07T19:32:53.298Z,94014.91
2023-03-07T19:35:19.701Z,94017.05
2023-03-07T19:37:46.009Z,94021.22
2023-03-07T19:40:12.407Z,94021.22
2023-03-07T19:42:38.729Z,94025.43
2023-03-07T19:45:05.115Z,94019.83
2023-03-07T19:47:31.525Z,94019.83
2023-03-07T19:49:57.902Z,94022.92
2023-03-07T19:52:24.469Z,94022.77
2023-03-07T19:54:50.850Z,94031.45
2023-03-07T19:57:17.184Z,94016.86
2023-03-07T19:59:45.975Z,94033.53
2023-03-07T20:02:12.325Z,94030.74
2023-03-07T20:04:38.715Z,94032.03
2023-03-07T20:07:05.063Z,94028.33
2023-03-07T20:09:31.449Z,94018.15
2023-03-07T20:11:57.791Z,94015.03
2023-03-07T20:14:24.161Z,94027.47
2023-03-07T20:16:50.497Z,94031.81
2023-03-07T20:19:18.078Z,94031.81
2023-03-07T20:21:43.225Z,94023.26
2023-03-07T20:24:09.632Z,94009.31
2023-03-07T20:26:35.960Z,94024.53
2023-03-07T20:29:02.329Z,94024.53
2023-03-07T20:31:28.716Z,94006.08
2023-03-07T20:33:55.050Z,94028.22
2023-03-07T20:36:21.401Z,94034.97
2023-03-07T20:38:47.776Z,94038.02
2023-03-07T20:41:14.120Z,94038.02
2023-03-07T20:43:40.553Z,94037.38
2023-03-07T20:46:06.914Z,94040.08
2023-03-07T20:48:33.252Z,94030.41
2023-03-07T20:50:59.595Z,94049.27
2023-03-07T20:53:25.968Z,94039.59
2023-03-07T20:55:52.324Z,94039.59
2023-03-07T20:58:18.702Z,94054.23
2023-03-07T21:00:45.038Z,94046.09
2023-03-07T21:03:11.411Z,94066.78
2023-03-07T21:05:37.761Z,94066.78
2023-03-07T21:08:04.157Z,94065.63
2023-03-07T21:10:30.571Z,94064.84
2023-03-07T21:12:56.969Z,94060.75
2023-03-07T21:15:23.307Z,94043.93
2023-03-07T21:17:49.708Z,94043.93
2023-03-07T21:20:16.090Z,94064.31
2023-03-07T21:22:42.453Z,94073.80
2023-03-07T21:25:08.796Z,94065.73
2023-03-07T21:27:35.258Z,94058.63
2023-03-07T21:30:01.773Z,94066.36
2023-03-07T21:32:28.220Z,94064.91
2023-03-07T21:34:54.519Z,94059.10
2023-03-07T21:37:20.901Z,94056.53
2023-03-07T21:39:47.247Z,94060.52
2023-03-07T21:42:13.609Z,94056.81
2023-03-07T21:44:39.959Z,94061.50
2023-03-07T21:47:06.341Z,94062.44
2023-03-07T21:49:32.677Z,94061.16
2023-03-07T21:51:59.065Z,94057.45
2023-03-07T21:54:25.416Z,94056.63
2023-03-07T21:56:51.788Z,94062.26
2023-03-07T21:59:18.140Z,94057.70
2023-03-07T22:01:44.522Z,94064.97
2023-03-07T22:04:10.886Z,94067.07
2023-03-07T22:06:37.300Z,94069.30
2023-03-07T22:09:03.677Z,94069.30
2023-03-07T22:11:30.078Z,94065.25
2023-03-07T22:13:56.396Z,94062.02
2023-03-07T22:16:22.891Z,94062.67
2023-03-07T22:18:49.168Z,94067.17
2023-03-07T22:21:15.557Z,94062.84
2023-03-07T22:23:41.954Z,94071.03
2023-03-07T22:26:08.292Z,94071.16
2023-03-07T22:28:34.639Z,94081.81
2023-03-07T22:31:01.041Z,94076.82
2023-03-07T22:33:27.368Z,94084.55
2023-03-07T22:35:55.208Z,94081.47
2023-03-07T22:38:20.096Z,94077.89
2023-03-07T22:40:46.483Z,94080.00
2023-03-07T22:43:12.836Z,94075.31
2023-03-07T22:45:39.242Z,94080.59
2023-03-07T22:48:05.616Z,94083.98
2023-03-07T22:50:32.006Z,94084.59
2023-03-07T22:52:58.426Z,94079.91
2023-03-07T22:55:24.809Z,94060.26
2023-03-07T22:57:51.144Z,94092.80
2023-03-07T23:00:17.549Z,94086.16
2023-03-07T23:02:43.886Z,94081.95
2023-03-07T23:05:10.284Z,94081.95
2023-03-07T23:07:36.623Z,94086.33
2023-03-07T23:10:03.023Z,94092.89
2023-03-07T23:12:29.345Z,94101.44
2023-03-07T23:14:55.725Z,94101.09
2023-03-07T23:17:22.067Z,94100.62
2023-03-07T23:19:48.489Z,94090.12
2023-03-07T23:22:14.874Z,94105.92
2023-03-07T23:24:41.265Z,94097.03
2023-03-07T23:27:07.593Z,94088.66
2023-03-07T23:29:33.969Z,94104.42
2023-03-07T23:32:00.310Z,94114.54
2023-03-07T23:34:26.693Z,94112.78
2023-03-07T23:36:53.044Z,94117.93
2023-03-07T23:39:19.433Z,94111.61
2023-03-07T23:41:45.772Z,94110.83
2023-03-07T23:44:12.158Z,94109.20
2023-03-07T23:46:38.503Z,94111.77
2023-03-07T23:49:04.892Z,94108.03
2023-03-07T23:51:32.496Z,94101.75
2023-03-07T23:53:57.665Z,94105.62
2023-03-07T23:56:24.020Z,94110.30
2023-03-07T23:58:50.420Z,94119.31
